createdAt,value
2018-04-06T00:00:17.376Z,91.05
2018-04-06T00:01:17.391Z,91.14
2018-04-06T00:03:17.423Z,91.24
2018-04-06T00:04:17.449Z,91.62
2018-04-06T00:05:17.488Z,91.24
2018-04-06T00:06:17.481Z,90.58
2018-04-06T00:07:17.496Z,90.58
2018-04-06T00:08:17.518Z,91.52
2018-04-06T00:09:17.535Z,91.62
2018-04-06T00:10:17.551Z,91.90
2018-04-06T00:11:17.579Z,91.33
2018-04-06T00:12:17.584Z,91.52
2018-04-06T00:13:17.599Z,91.62
2018-04-06T00:14:17.657Z,91.24
2018-04-06T00:15:17.634Z,90.95
2018-04-06T00:16:17.660Z,90.95
2018-04-06T00:17:17.678Z,91.05
2018-04-06T00:18:17.686Z,91.62
2018-04-06T00:19:17.712Z,91.43
2018-04-06T00:20:17.721Z,92.00
2018-04-06T00:21:17.746Z,91.62
2018-04-06T00:22:17.769Z,91.33
2018-04-06T00:23:17.796Z,91.71
2018-04-06T00:24:17.800Z,92.00
2018-04-06T00:25:18.148Z,92.28
2018-04-06T00:26:17.827Z,92.38
2018-04-06T00:27:17.846Z,92.47
2018-04-06T00:28:17.865Z,92.47
2018-04-06T00:29:17.887Z,92.57
2018-04-06T00:30:17.897Z,92.57
2018-04-06T00:31:17.950Z,91.90
2018-04-06T00:32:17.934Z,91.62
2018-04-06T00:33:17.949Z,91.90
2018-04-06T00:34:17.974Z,91.81
2018-04-06T00:35:17.983Z,92.47
2018-04-06T00:36:18.010Z,92.66
2018-04-06T00:37:18.026Z,92.47
2018-04-06T00:38:18.046Z,92.38
2018-04-06T00:39:18.056Z,92.00
2018-04-06T00:40:18.076Z,91.90
2018-04-06T00:41:18.095Z,92.19
2018-04-06T00:42:18.114Z,92.28
2018-04-06T00:43:18.123Z,92.38
2018-04-06T00:44:18.345Z,92.47
2018-04-06T00:45:18.164Z,92.19
2018-04-06T00:46:18.202Z,92.57
2018-04-06T00:47:18.198Z,92.28
2018-04-06T00:48:18.213Z,92.38
2018-04-06T00:49:18.228Z,92.38
2018-04-06T00:50:18.256Z,92.38
2018-04-06T00:51:18.269Z,92.47
2018-04-06T00:52:18.284Z,92.28
2018-04-06T00:53:18.304Z,92.76
2018-04-06T00:54:18.317Z,92.66
2018-04-06T00:55:18.332Z,92.28
2018-04-06T00:56:18.358Z,92.94
2018-04-06T00:57:18.375Z,93.13
2018-04-06T00:58:18.386Z,92.94
2018-04-06T00:59:18.429Z,93.32
2018-04-06T01:00:18.425Z,92.76
2018-04-06T01:01:18.648Z,93.70
2018-04-06T01:02:18.456Z,93.80
2018-04-06T01:03:18.475Z,92.85
2018-04-06T01:04:18.490Z,92.66
2018-04-06T01:05:18.512Z,92.66
2018-04-06T01:06:18.528Z,93.70
2018-04-06T01:07:18.540Z,93.42
2018-04-06T01:08:18.567Z,93.51
2018-04-06T01:09:18.579Z,93.80
2018-04-06T01:10:18.603Z,93.04
2018-04-06T01:11:18.615Z,92.94
2018-04-06T01:12:18.636Z,92.38
2018-04-06T01:13:18.645Z,92.66
2018-04-06T01:14:18.672Z,92.47
2018-04-06T01:15:18.679Z,92.57
2018-04-06T01:16:18.707Z,91.81
2018-04-06T01:17:18.716Z,92.28
2018-04-06T01:18:18.742Z,92.00
2018-04-06T01:19:18.750Z,91.90
2018-04-06T01:20:18.770Z,92.47
2018-04-06T01:21:18.792Z,92.28
2018-04-06T01:22:18.809Z,92.76
2018-04-06T01:23:19.024Z,92.38
2018-04-06T01:24:18.843Z,92.38
2018-04-06T01:25:18.860Z,92.19
2018-04-06T01:26:18.882Z,91.90
2018-04-06T01:27:18.894Z,91.62
2018-04-06T01:28:18.909Z,91.52
2018-04-06T01:29:18.956Z,91.43
2018-04-06T01:30:18.948Z,91.71
2018-04-06T01:31:18.963Z,91.43
2018-04-06T01:32:19.007Z,91.33
2018-04-06T01:33:19.004Z,91.43
2018-04-06T01:34:19.012Z,91.81
2018-04-06T01:35:19.037Z,91.71
2018-04-06T01:36:19.091Z,91.90
2018-04-06T01:37:19.063Z,91.81
2018-04-06T01:38:19.088Z,92.19
2018-04-06T01:39:19.098Z,92.09
2018-04-06T01:40:19.123Z,92.57
2018-04-06T01:41:19.143Z,92.28
2018-04-06T01:42:19.150Z,92.85
2018-04-06T01:43:19.169Z,92.94
2018-04-06T01:44:19.229Z,92.76
2018-04-06T01:45:19.202Z,93.32
2018-04-06T01:46:19.231Z,93.04
2018-04-06T01:47:19.250Z,93.32
2018-04-06T01:48:19.257Z,93.04
2018-04-06T01:49:19.277Z,93.04
2018-04-06T01:50:19.320Z,93.13
2018-04-06T01:51:19.306Z,93.23
2018-04-06T01:52:19.335Z,93.04
2018-04-06T01:53:19.344Z,93.23
2018-04-06T01:54:19.577Z,93.51
2018-04-06T01:55:19.384Z,93.70
2018-04-06T01:56:19.393Z,94.18
2018-04-06T01:57:19.416Z,94.08
2018-04-06T01:58:19.431Z,94.27
2018-04-06T01:59:19.450Z,94.27
2018-04-06T02:00:19.469Z,93.80
2018-04-06T02:01:19.488Z,93.51
2018-04-06T02:02:19.496Z,93.32
2018-04-06T02:03:19.516Z,94.08
2018-04-06T02:04:19.537Z,94.37
2018-04-06T02:05:19.551Z,93.89
2018-04-06T02:06:19.572Z,94.27
2018-04-06T02:07:19.789Z,94.18
2018-04-06T02:08:19.599Z,93.80
2018-04-06T02:09:19.619Z,93.89
2018-04-06T02:10:19.645Z,94.65
2018-04-06T02:11:19.654Z,94.65
2018-04-06T02:12:19.679Z,95.31
2018-04-06T02:13:19.690Z,95.12
2018-04-06T02:14:19.913Z,95.26
2018-04-06T02:15:19.726Z,95.41
2018-04-06T02:16:19.746Z,95.26
2018-04-06T02:17:19.758Z,95.60
2018-04-06T02:18:19.784Z,95.64
2018-04-06T02:19:19.792Z,95.74
2018-04-06T02:20:19.819Z,95.07
2018-04-06T02:21:19.864Z,95.55
2018-04-06T02:22:19.849Z,95.36
2018-04-06T02:23:19.867Z,95.55
2018-04-06T02:24:20.090Z,95.26
2018-04-06T02:25:19.906Z,95.17
2018-04-06T02:26:19.935Z,95.26
2018-04-06T02:27:19.939Z,95.17
2018-04-06T02:28:19.948Z,94.89
2018-04-06T02:29:19.972Z,95.26
2018-04-06T02:30:19.988Z,95.36
2018-04-06T02:31:20.008Z,95.55
2018-04-06T02:32:20.027Z,95.17
2018-04-06T02:33:20.044Z,95.07
2018-04-06T02:34:20.060Z,95.93
2018-04-06T02:35:20.400Z,96.12
2018-04-06T02:36:20.093Z,96.21
2018-04-06T02:37:20.115Z,96.59
2018-04-06T02:38:20.125Z,96.50
2018-04-06T02:39:20.141Z,96.02
2018-04-06T02:40:20.162Z,96.40
2018-04-06T02:41:20.194Z,96.12
2018-04-06T02:42:20.198Z,96.31
2018-04-06T02:43:20.212Z,96.31
2018-04-06T02:44:20.226Z,96.50
2018-04-06T02:45:20.251Z,96.69
2018-04-06T02:46:20.258Z,96.40
2018-04-06T02:47:20.303Z,96.12
2018-04-06T02:48:20.300Z,96.40
2018-04-06T02:49:20.334Z,96.12
2018-04-06T02:50:20.336Z,96.02
2018-04-06T02:51:20.351Z,95.64
2018-04-06T02:52:20.367Z,94.98
2018-04-06T02:53:20.379Z,95.45
2018-04-06T02:54:20.432Z,95.26
2018-04-06T02:55:20.419Z,95.36
2018-04-06T02:56:20.434Z,95.36
2018-04-06T02:57:20.456Z,95.07
2018-04-06T02:58:20.465Z,95.26
2018-04-06T02:59:20.485Z,95.07
2018-04-06T03:00:20.534Z,95.31
2018-04-06T03:01:20.529Z,95.83
2018-04-06T03:02:20.541Z,96.21
2018-04-06T03:03:20.555Z,95.74
2018-04-06T03:04:20.569Z,96.45
2018-04-06T03:06:20.610Z,95.97
2018-04-06T03:07:20.617Z,96.35
2018-04-06T03:08:20.638Z,96.92
2018-04-06T03:09:20.864Z,97.30
2018-04-06T03:10:20.675Z,97.20
2018-04-06T03:11:20.717Z,97.39
2018-04-06T03:12:20.711Z,97.39
2018-04-06T03:13:20.725Z,97.77
2018-04-06T03:14:20.772Z,97.49
2018-04-06T03:15:20.762Z,97.39
2018-04-06T03:16:20.770Z,97.58
2018-04-06T03:17:20.797Z,97.39
2018-04-06T03:18:20.813Z,97.58
2018-04-06T03:19:20.821Z,97.96
2018-04-06T03:20:20.842Z,97.87
2018-04-06T03:21:20.864Z,97.87
2018-04-06T03:22:20.875Z,98.25
2018-04-06T03:23:20.899Z,98.72
2018-04-06T03:24:20.913Z,98.82
2018-04-06T03:25:20.928Z,99.29
2018-04-06T03:26:20.974Z,99.01
2018-04-06T03:27:20.991Z,99.10
2018-04-06T03:28:20.975Z,99.19
2018-04-06T03:29:20.995Z,99.19
2018-04-06T03:30:21.013Z,99.57
2018-04-06T03:31:21.059Z,98.72
2018-04-06T03:32:21.050Z,99.57
2018-04-06T03:33:21.083Z,99.10
2018-04-06T03:34:21.076Z,99.76
2018-04-06T03:35:21.099Z,99.95
2018-04-06T03:36:21.109Z,99.57
2018-04-06T03:37:21.134Z,99.95
2018-04-06T03:38:21.151Z,99.99
2018-04-06T03:40:21.174Z,99.85
2018-04-06T03:41:21.201Z,99.76
2018-04-06T03:42:21.209Z,99.85
2018-04-06T03:43:21.227Z,99.95
2018-04-06T03:44:21.247Z,99.99
2018-04-06T03:45:21.464Z,99.95
2018-04-06T03:46:21.275Z,99.99
2018-04-06T03:47:21.297Z,99.76
2018-04-06T03:48:21.518Z,99.85
2018-04-06T03:50:21.348Z,99.95
2018-04-06T03:51:21.410Z,99.99
2018-04-06T03:52:21.383Z,99.99
2018-04-06T03:53:21.417Z,99.99
2018-04-06T03:54:21.411Z,99.99
2018-04-06T03:55:21.432Z,99.99
2018-04-06T03:56:21.441Z,99.99
2018-04-06T03:57:21.466Z,99.99
2018-04-06T03:58:21.483Z,99.99
2018-04-06T03:59:21.827Z,99.99
2018-04-06T04:00:21.512Z,99.99
2018-04-06T04:01:21.531Z,99.99
2018-04-06T04:02:21.552Z,99.99
2018-04-06T04:03:21.558Z,99.99
2018-04-06T04:04:21.581Z,99.99
2018-04-06T04:05:21.591Z,99.99
2018-04-06T04:06:21.644Z,99.99
2018-04-06T04:07:21.621Z,99.99
2018-04-06T04:08:21.638Z,99.99
2018-04-06T04:09:21.664Z,99.99
2018-04-06T04:10:21.678Z,99.99
2018-04-06T04:11:21.691Z,99.99
2018-04-06T04:12:21.712Z,99.99
2018-04-06T04:13:21.721Z,99.99
2018-04-06T04:14:21.743Z,99.99
2018-04-06T04:15:21.759Z,99.99
2018-04-06T04:16:21.975Z,99.99
2018-04-06T04:17:21.793Z,99.99
2018-04-06T04:18:21.850Z,99.99
2018-04-06T04:19:21.821Z,99.99
2018-04-06T04:20:21.842Z,99.99
2018-04-06T04:21:21.862Z,99.99
2018-04-06T04:22:21.908Z,99.99
2018-04-06T04:23:21.889Z,99.99
2018-04-06T04:24:21.910Z,99.99
2018-04-06T04:25:21.920Z,99.99
2018-04-06T04:26:21.938Z,99.99
2018-04-06T04:27:21.957Z,99.99
2018-04-06T04:28:21.969Z,99.99
2018-04-06T04:29:21.993Z,99.99
2018-04-06T04:30:22.008Z,99.99
2018-04-06T04:31:22.020Z,99.99
2018-04-06T04:32:22.034Z,99.99
2018-04-06T04:33:22.059Z,99.99
2018-04-06T04:34:22.075Z,99.99
2018-04-06T04:35:22.091Z,99.99
2018-04-06T04:36:22.137Z,99.99
2018-04-06T04:37:22.122Z,99.99
2018-04-06T04:38:22.136Z,99.99
2018-04-06T04:39:22.153Z,99.99
2018-04-06T04:40:22.166Z,99.99
2018-04-06T04:41:22.392Z,99.99
2018-04-06T04:42:22.198Z,99.99
2018-04-06T04:43:22.223Z,99.99
2018-04-06T04:44:22.244Z,99.99
2018-04-06T04:45:22.249Z,99.99
2018-04-06T04:47:22.288Z,99.99
2018-04-06T04:48:22.297Z,99.99
2018-04-06T04:49:22.323Z,99.99
2018-04-06T04:50:22.335Z,99.99
2018-04-06T04:51:22.347Z,99.99
2018-04-06T04:52:22.362Z,99.99
2018-04-06T04:53:22.384Z,99.99
2018-04-06T04:54:22.397Z,99.99
2018-04-06T04:55:22.415Z,99.99
2018-04-06T04:56:22.430Z,99.99
2018-04-06T04:57:22.455Z,99.99
2018-04-06T04:58:22.483Z,99.99
2018-04-06T04:59:22.475Z,99.99
2018-04-06T05:00:22.509Z,99.99
2018-04-06T05:01:22.509Z,99.99
2018-04-06T05:02:22.562Z,99.99
2018-04-06T05:03:22.546Z,99.99
2018-04-06T05:04:22.560Z,99.99
2018-04-06T05:05:22.575Z,99.99
2018-04-06T05:06:22.593Z,99.99
2018-04-06T05:07:22.607Z,99.99
2018-04-06T05:08:22.631Z,99.99
2018-04-06T05:09:22.644Z,99.99
2018-04-06T05:10:22.661Z,99.99
2018-04-06T05:11:22.674Z,99.99
2018-04-06T05:12:22.689Z,99.99
2018-04-06T05:13:22.713Z,99.99
2018-04-06T05:14:22.721Z,99.99
2018-04-06T05:15:22.748Z,99.99
2018-04-06T05:16:22.753Z,99.99
2018-04-06T05:17:22.769Z,99.99
2018-04-06T05:18:22.794Z,99.99
2018-04-06T05:19:22.803Z,99.99
2018-04-06T05:20:22.826Z,99.99
2018-04-06T05:21:22.841Z,99.99
2018-04-06T05:22:22.857Z,99.99
2018-04-06T05:23:22.867Z,99.99
2018-04-06T05:24:22.896Z,99.99
2018-04-06T05:25:22.903Z,99.99
2018-04-06T05:26:22.922Z,99.99
2018-04-06T05:27:22.942Z,99.99
2018-04-06T05:28:22.949Z,99.99
2018-04-06T05:29:22.972Z,99.99
2018-04-06T05:30:22.986Z,99.99
2018-04-06T05:31:22.999Z,99.99
2018-04-06T05:32:23.086Z,99.99
2018-04-06T05:33:23.034Z,99.99
2018-04-06T05:34:23.053Z,99.99
2018-04-06T05:35:23.071Z,99.99
2018-04-06T05:36:23.143Z,99.99
2018-04-06T05:37:23.106Z,99.99
2018-04-06T05:38:23.119Z,99.99
2018-04-06T05:39:23.137Z,99.99
2018-04-06T05:40:23.147Z,99.99
2018-04-06T05:41:23.168Z,99.99
2018-04-06T05:42:23.186Z,99.99
2018-04-06T05:43:23.195Z,99.99
2018-04-06T05:44:23.220Z,99.99
2018-04-06T05:45:23.237Z,99.99
2018-04-06T05:46:23.246Z,99.99
2018-04-06T05:47:23.263Z,99.99
2018-04-06T05:48:23.283Z,99.99
2018-04-06T05:49:23.298Z,99.99
2018-04-06T05:50:23.310Z,99.99
2018-04-06T05:51:23.327Z,99.99
2018-04-06T05:52:23.350Z,99.99
2018-04-06T05:53:23.366Z,99.99
2018-04-06T05:54:23.381Z,98.77
2018-04-06T05:55:23.392Z,98.58
2018-04-06T05:56:23.412Z,98.49
2018-04-06T05:57:23.430Z,98.25
2018-04-06T05:58:23.449Z,98.82
2018-04-06T05:59:23.463Z,99.29
2018-04-06T06:00:23.482Z,99.10
2018-04-06T06:01:23.493Z,99.85
2018-04-06T06:02:23.519Z,99.99
2018-04-06T06:03:23.526Z,99.99
2018-04-06T06:04:23.552Z,99.99
2018-04-06T06:05:23.589Z,99.95
2018-04-06T06:06:23.582Z,99.99
2018-04-06T06:07:23.594Z,99.76
2018-04-06T06:08:23.615Z,99.99
2018-04-06T06:09:23.634Z,99.85
2018-04-06T06:10:23.649Z,99.57
2018-04-06T06:11:23.664Z,99.15
2018-04-06T06:12:23.680Z,98.86
2018-04-06T06:13:23.697Z,98.77
2018-04-06T06:14:23.711Z,98.91
2018-04-06T06:15:23.733Z,99.15
2018-04-06T06:16:23.745Z,98.77
2018-04-06T06:17:23.767Z,99.15
2018-04-06T06:18:23.776Z,98.96
2018-04-06T06:19:23.799Z,99.15
2018-04-06T06:20:23.808Z,99.05
2018-04-06T06:21:23.826Z,98.68
2018-04-06T06:22:23.851Z,98.39
2018-04-06T06:23:23.857Z,98.01
2018-04-06T06:24:23.883Z,97.35
2018-04-06T06:25:23.898Z,96.73
2018-04-06T06:26:23.911Z,94.70
2018-04-06T06:27:23.935Z,90.86
2018-04-06T06:28:23.945Z,88.20
2018-04-06T06:29:23.961Z,87.16
2018-04-06T06:30:23.982Z,86.40
2018-04-06T06:31:23.997Z,85.64
2018-04-06T06:32:24.016Z,85.30
2018-04-06T06:33:24.035Z,83.73
2018-04-06T06:34:24.048Z,82.40
2018-04-06T06:35:24.064Z,82.12
2018-04-06T06:36:24.090Z,80.69
2018-04-06T06:37:24.104Z,80.60
2018-04-06T06:38:24.123Z,81.36
2018-04-06T06:39:24.145Z,81.36
2018-04-06T06:40:24.155Z,80.32
2018-04-06T06:41:24.183Z,79.55
2018-04-06T06:42:24.227Z,79.50
2018-04-06T06:43:24.217Z,78.17
2018-04-06T06:44:24.238Z,77.07
2018-04-06T06:45:24.281Z,75.74
2018-04-06T06:47:24.302Z,74.16
2018-04-06T06:48:24.318Z,72.92
2018-04-06T06:49:24.337Z,71.72
2018-04-06T06:50:24.364Z,70.93
2018-04-06T06:51:24.376Z,71.46
2018-04-06T06:52:24.400Z,74.03
2018-04-06T06:53:24.424Z,73.49
2018-04-06T06:54:24.477Z,72.64
2018-04-06T06:55:24.464Z,71.53
2018-04-06T06:56:24.484Z,71.12
2018-04-06T06:57:24.514Z,71.22
2018-04-06T06:58:24.534Z,71.31
2018-04-06T06:59:24.551Z,71.31
2018-04-06T07:00:24.577Z,70.87
2018-04-06T07:01:24.598Z,70.87
2018-04-06T07:02:24.627Z,70.01
2018-04-06T07:03:24.639Z,71.02
2018-04-06T07:04:24.694Z,71.44
2018-04-06T07:05:24.892Z,70.14
2018-04-06T07:06:24.914Z,69.15
2018-04-06T07:07:24.778Z,68.62
2018-04-06T07:08:24.843Z,66.91
2018-04-06T07:09:24.786Z,67.95
2018-04-06T07:10:24.803Z,67.95
2018-04-06T07:11:24.829Z,67.57
2018-04-06T07:12:24.854Z,67.47
2018-04-06T07:13:24.876Z,67.10
2018-04-06T07:14:24.899Z,67.10
2018-04-06T07:15:24.917Z,66.72
2018-04-06T07:16:24.943Z,66.53
2018-04-06T07:17:24.963Z,66.27
2018-04-06T07:18:25.198Z,65.26
2018-04-06T07:19:25.019Z,63.57
2018-04-06T07:20:25.035Z,62.52
2018-04-06T07:21:25.067Z,62.24
2018-04-06T07:22:25.086Z,61.83
2018-04-06T07:23:25.112Z,63.26
2018-04-06T07:24:25.134Z,62.34
2018-04-06T07:25:25.161Z,61.67
2018-04-06T07:26:25.185Z,60.65
2018-04-06T07:27:25.207Z,59.41
2018-04-06T07:28:25.234Z,59.99
2018-04-06T07:29:25.256Z,59.70
2018-04-06T07:30:25.285Z,59.70
2018-04-06T07:31:25.306Z,59.41
2018-04-06T07:32:25.550Z,59.41
2018-04-06T07:33:25.355Z,59.99
2018-04-06T07:34:25.410Z,60.69
2018-04-06T07:35:25.406Z,60.81
2018-04-06T07:36:25.436Z,60.05
2018-04-06T07:37:25.453Z,59.79
2018-04-06T07:38:25.484Z,58.84
2018-04-06T07:39:25.506Z,58.26
2018-04-06T07:40:25.530Z,59.28
2018-04-06T07:41:25.567Z,59.89
2018-04-06T07:42:25.584Z,59.48
2018-04-06T07:43:25.611Z,59.51
2018-04-06T07:44:25.682Z,58.75
2018-04-06T07:45:25.659Z,57.43
2018-04-06T07:46:25.688Z,57.22
2018-04-06T07:47:25.714Z,58.36
2018-04-06T07:48:25.743Z,57.79
2018-04-06T07:49:25.771Z,57.82
2018-04-06T07:50:25.792Z,57.15
2018-04-06T07:51:25.820Z,56.32
2018-04-06T07:52:25.838Z,54.82
2018-04-06T07:53:25.876Z,54.96
2018-04-06T07:54:25.894Z,55.27
2018-04-06T07:55:25.923Z,54.60
2018-04-06T07:56:25.951Z,53.86
2018-04-06T07:57:25.996Z,52.62
2018-04-06T07:58:26.034Z,52.43
2018-04-06T07:59:26.024Z,52.98
2018-04-06T08:00:26.048Z,53.00
2018-04-06T08:01:26.119Z,52.17
2018-04-06T08:02:26.105Z,51.67
2018-04-06T08:03:26.186Z,52.43
2018-04-06T08:04:26.155Z,52.43
2018-04-06T08:05:26.185Z,51.95
2018-04-06T08:06:26.212Z,52.69
2018-04-06T08:07:26.241Z,53.55
2018-04-06T08:08:26.269Z,52.91
2018-04-06T08:09:26.288Z,51.98
2018-04-06T08:10:26.321Z,51.50
2018-04-06T08:11:26.381Z,50.67
2018-04-06T08:12:26.369Z,49.43
2018-04-06T08:13:26.412Z,49.80
2018-04-06T08:14:26.426Z,48.78
2018-04-06T08:15:26.455Z,48.59
2018-04-06T08:16:26.523Z,48.78
2018-04-06T08:17:26.505Z,48.52
2018-04-06T08:18:26.539Z,47.66
2018-04-06T08:19:26.559Z,47.44
2018-04-06T08:20:26.623Z,47.82
2018-04-06T08:21:26.620Z,47.85
2018-04-06T08:22:26.671Z,46.31
2018-04-06T08:23:26.678Z,47.44
2018-04-06T08:24:26.699Z,46.51
2018-04-06T08:25:26.730Z,45.65
2018-04-06T08:26:26.799Z,46.41
2018-04-06T08:27:26.789Z,45.53
2018-04-06T08:28:26.813Z,45.81
2018-04-06T08:29:26.844Z,47.52
2018-04-06T08:30:26.872Z,47.80
2018-04-06T08:31:26.897Z,47.44
2018-04-06T08:32:26.930Z,46.94
2018-04-06T08:33:26.959Z,47.63
2018-04-06T08:34:26.984Z,47.25
2018-04-06T08:35:27.047Z,47.61
2018-04-06T08:36:27.037Z,47.16
2018-04-06T08:37:27.069Z,47.16
2018-04-06T08:38:27.103Z,47.32
2018-04-06T08:39:27.129Z,46.01
2018-04-06T08:40:27.159Z,44.62
2018-04-06T08:41:27.181Z,43.83
2018-04-06T08:42:27.227Z,43.56
2018-04-06T08:43:27.240Z,42.36
2018-04-06T08:44:27.266Z,42.01
2018-04-06T08:45:27.303Z,43.16
2018-04-06T08:46:27.328Z,43.88
2018-04-06T08:47:27.383Z,44.36
2018-04-06T08:48:27.393Z,44.29
2018-04-06T08:49:27.413Z,44.48
2018-04-06T08:50:27.448Z,43.71
2018-04-06T08:51:27.468Z,44.26
2018-04-06T08:52:27.528Z,44.19
2018-04-06T08:53:27.526Z,44.09
2018-04-06T08:54:27.555Z,43.80
2018-04-06T08:55:27.585Z,43.90
2018-04-06T08:56:27.616Z,43.54
2018-04-06T08:57:27.644Z,42.51
2018-04-06T08:58:27.874Z,40.61
2018-04-06T08:59:27.724Z,39.77
2018-04-06T09:00:27.736Z,39.22
2018-04-06T09:01:27.755Z,39.41
2018-04-06T09:02:27.792Z,38.43
2018-04-06T09:03:27.815Z,38.07
2018-04-06T09:04:27.844Z,38.07
2018-04-06T09:05:27.880Z,37.80
2018-04-06T09:06:27.920Z,36.80
2018-04-06T09:07:27.939Z,36.44
2018-04-06T09:08:28.167Z,36.44
2018-04-06T09:09:27.998Z,36.91
2018-04-06T09:10:28.028Z,36.82
2018-04-06T09:11:28.053Z,35.78
2018-04-06T09:12:28.081Z,35.21
2018-04-06T09:13:28.115Z,34.14
2018-04-06T09:14:28.146Z,35.77
2018-04-06T09:15:28.173Z,36.40
2018-04-06T09:16:28.200Z,36.36
2018-04-06T09:17:28.236Z,36.38
2018-04-06T09:18:28.261Z,35.80
2018-04-06T09:19:28.294Z,35.51
2018-04-06T09:20:28.365Z,34.86
2018-04-06T09:21:28.374Z,34.67
2018-04-06T09:22:28.386Z,34.38
2018-04-06T09:23:28.431Z,33.98
2018-04-06T09:24:28.443Z,34.17
2018-04-06T09:25:28.470Z,34.45
2018-04-06T09:26:28.498Z,35.43
2018-04-06T09:27:28.532Z,34.28
2018-04-06T09:28:28.565Z,33.42
2018-04-06T09:29:28.591Z,33.32
2018-04-06T09:30:28.620Z,33.13
2018-04-06T09:31:28.660Z,31.69
2018-04-06T09:32:28.714Z,31.69
2018-04-06T09:33:28.721Z,31.02
2018-04-06T09:34:28.757Z,30.74
2018-04-06T09:35:28.774Z,30.82
2018-04-06T09:36:28.828Z,30.04
2018-04-06T09:37:28.837Z,30.71
2018-04-06T09:38:28.875Z,30.35
2018-04-06T09:39:28.897Z,29.67
2018-04-06T09:40:28.937Z,29.28
2018-04-06T09:41:28.965Z,28.82
2018-04-06T09:42:29.199Z,28.07
2018-04-06T09:43:29.026Z,28.04
2018-04-06T09:44:29.058Z,28.04
2018-04-06T09:45:29.083Z,27.58
2018-04-06T09:46:29.115Z,27.09
2018-04-06T09:47:29.145Z,26.60
2018-04-06T09:48:29.177Z,26.70
2018-04-06T09:49:29.208Z,27.55
2018-04-06T09:50:29.240Z,27.82
2018-04-06T09:51:29.272Z,28.12
2018-04-06T09:52:29.304Z,27.95
2018-04-06T09:53:29.333Z,27.19
2018-04-06T09:54:29.365Z,26.35
2018-04-06T09:55:29.423Z,25.85
2018-04-06T09:56:29.426Z,24.99
2018-04-06T09:57:29.457Z,25.07
2018-04-06T09:58:29.489Z,25.17
2018-04-06T09:59:29.520Z,24.90
2018-04-06T10:00:29.552Z,24.90
2018-04-06T10:01:29.582Z,24.61
2018-04-06T10:02:29.612Z,25.15
2018-04-06T10:03:29.644Z,25.73
2018-04-06T10:04:29.684Z,25.56
2018-04-06T10:05:29.707Z,24.80
2018-04-06T10:06:29.740Z,24.33
2018-04-06T10:07:29.768Z,23.94
2018-04-06T10:08:29.800Z,23.75
2018-04-06T10:09:29.831Z,23.57
2018-04-06T10:10:29.862Z,23.38
2018-04-06T10:11:29.892Z,23.46
2018-04-06T10:12:29.924Z,23.75
2018-04-06T10:13:29.957Z,23.28
2018-04-06T10:14:29.993Z,22.81
2018-04-06T10:15:30.021Z,22.52
2018-04-06T10:16:30.048Z,22.62
2018-04-06T10:17:30.081Z,22.53
2018-04-06T10:18:30.113Z,22.36
2018-04-06T10:19:30.144Z,22.16
2018-04-06T10:20:30.176Z,21.38
2018-04-06T10:21:30.207Z,20.72
2018-04-06T10:22:30.240Z,21.38
2018-04-06T10:23:30.270Z,22.05
2018-04-06T10:24:30.302Z,22.24
2018-04-06T10:25:30.334Z,23.09
2018-04-06T10:26:30.366Z,23.28
2018-04-06T10:27:30.397Z,23.47
2018-04-06T10:28:30.429Z,24.23
2018-04-06T10:29:30.461Z,24.82
2018-04-06T10:30:30.494Z,24.84
2018-04-06T10:31:30.525Z,24.73
2018-04-06T10:32:30.556Z,23.68
2018-04-06T10:33:30.589Z,23.97
2018-04-06T10:34:30.622Z,24.16
2018-04-06T10:35:30.653Z,23.86
2018-04-06T10:36:30.683Z,24.82
2018-04-06T10:37:30.720Z,24.93
2018-04-06T10:38:30.748Z,24.91
2018-04-06T10:39:30.779Z,25.38
2018-04-06T10:40:30.861Z,25.27
2018-04-06T10:41:30.843Z,25.18
2018-04-06T10:42:30.876Z,24.73
2018-04-06T10:43:30.909Z,23.57
2018-04-06T10:44:30.939Z,24.32
2018-04-06T10:45:30.971Z,23.93
2018-04-06T10:46:31.006Z,23.47
2018-04-06T10:47:31.033Z,23.37
2018-04-06T10:48:31.068Z,23.83
2018-04-06T10:49:31.097Z,25.18
2018-04-06T10:50:31.132Z,25.27
2018-04-06T10:51:31.160Z,26.20
2018-04-06T10:52:31.192Z,27.47
2018-04-06T10:53:31.224Z,26.89
2018-04-06T10:54:31.255Z,26.43
2018-04-06T10:55:31.289Z,25.95
2018-04-06T10:56:31.319Z,25.85
2018-04-06T10:57:31.349Z,25.85
2018-04-06T10:58:31.378Z,25.67
2018-04-06T10:59:31.410Z,24.92
2018-04-06T11:00:31.441Z,25.49
2018-04-06T11:01:31.472Z,26.36
2018-04-06T11:02:31.503Z,25.90
2018-04-06T11:03:31.533Z,26.00
2018-04-06T11:04:31.564Z,26.65
2018-04-06T11:05:31.596Z,26.47
2018-04-06T11:06:31.626Z,26.86
2018-04-06T11:07:31.657Z,26.95
2018-04-06T11:08:31.688Z,26.94
2018-04-06T11:09:31.719Z,27.51
2018-04-06T11:10:31.751Z,28.19
2018-04-06T11:11:31.782Z,27.81
2018-04-06T11:12:31.817Z,27.33
2018-04-06T11:13:31.844Z,26.94
2018-04-06T11:14:31.876Z,26.65
2018-04-06T11:15:31.916Z,26.92
2018-04-06T11:16:31.938Z,27.17
2018-04-06T11:17:31.968Z,27.40
2018-04-06T11:18:32.001Z,27.59
2018-04-06T11:19:32.031Z,27.31
2018-04-06T11:20:32.062Z,26.36
2018-04-06T11:21:32.093Z,24.95
2018-04-06T11:22:32.123Z,24.57
2018-04-06T11:23:32.154Z,23.99
2018-04-06T11:24:32.186Z,23.71
2018-04-06T11:25:32.217Z,24.01
2018-04-06T11:26:32.248Z,23.90
2018-04-06T11:27:32.278Z,23.98
2018-04-06T11:28:32.309Z,23.99
2018-04-06T11:29:32.341Z,23.50
2018-04-06T11:30:32.375Z,23.71
2018-04-06T11:31:32.403Z,23.50
2018-04-06T11:32:32.435Z,23.33
2018-04-06T11:33:32.466Z,23.39
2018-04-06T11:34:32.498Z,23.80
2018-04-06T11:35:32.531Z,24.65
2018-04-06T11:36:32.560Z,25.03
2018-04-06T11:37:32.593Z,25.03
2018-04-06T11:38:32.624Z,24.66
2018-04-06T11:39:32.654Z,25.22
2018-04-06T11:40:32.686Z,24.95
2018-04-06T11:41:32.724Z,25.13
2018-04-06T11:42:32.748Z,23.99
2018-04-06T11:43:32.779Z,23.43
2018-04-06T11:44:32.810Z,23.34
2018-04-06T11:45:32.843Z,23.25
2018-04-06T11:46:32.875Z,22.50
2018-04-06T11:47:32.905Z,22.30
2018-04-06T11:48:32.939Z,22.02
2018-04-06T11:49:32.969Z,22.06
2018-04-06T11:50:33.001Z,22.44
2018-04-06T11:51:33.032Z,24.04
2018-04-06T11:52:33.064Z,25.29
2018-04-06T11:53:33.096Z,25.22
2018-04-06T11:54:33.127Z,25.13
2018-04-06T11:55:33.159Z,24.46
2018-04-06T11:56:33.190Z,24.57
2018-04-06T11:57:33.222Z,24.01
2018-04-06T11:58:33.254Z,23.91
2018-04-06T11:59:33.284Z,23.33
2018-04-06T12:00:33.317Z,23.52
2018-04-06T12:01:33.348Z,22.96
2018-04-06T12:02:33.381Z,23.15
2018-04-06T12:03:33.410Z,23.24
2018-04-06T12:04:33.444Z,23.44
2018-04-06T12:05:33.473Z,22.93
2018-04-06T12:06:33.506Z,23.71
2018-04-06T12:07:33.536Z,24.01
2018-04-06T12:08:33.568Z,23.44
2018-04-06T12:09:33.598Z,22.57
2018-04-06T12:10:33.631Z,22.27
2018-04-06T12:11:33.662Z,22.46
2018-04-06T12:12:33.701Z,22.93
2018-04-06T12:13:33.725Z,22.85
2018-04-06T12:14:33.757Z,22.85
2018-04-06T12:15:33.787Z,22.46
2018-04-06T12:16:33.821Z,23.13
2018-04-06T12:17:33.852Z,23.90
2018-04-06T12:18:33.885Z,23.79
2018-04-06T12:19:33.913Z,23.79
2018-04-06T12:20:33.943Z,23.41
2018-04-06T12:21:33.981Z,22.93
2018-04-06T12:22:34.007Z,23.02
2018-04-06T12:23:34.039Z,22.74
2018-04-06T12:24:34.070Z,22.66
2018-04-06T12:25:34.101Z,21.98
2018-04-06T12:26:34.131Z,22.19
2018-04-06T12:27:34.161Z,22.28
2018-04-06T12:28:34.193Z,21.53
2018-04-06T12:29:34.224Z,20.47
2018-04-06T12:30:34.255Z,20.65
2018-04-06T12:31:34.288Z,20.45
2018-04-06T12:32:34.317Z,20.73
2018-04-06T12:33:34.349Z,20.43
2018-04-06T12:34:34.382Z,20.16
2018-04-06T12:35:34.410Z,21.38
2018-04-06T12:36:34.441Z,21.48
2018-04-06T12:37:34.484Z,20.73
2018-04-06T12:38:34.507Z,20.46
2018-04-06T12:39:34.534Z,20.36
2018-04-06T12:40:34.563Z,20.72
2018-04-06T12:41:34.595Z,22.06
2018-04-06T12:42:34.625Z,20.90
2018-04-06T12:43:34.655Z,21.47
2018-04-06T12:44:34.687Z,22.32
2018-04-06T12:45:34.717Z,21.78
2018-04-06T12:46:34.748Z,21.01
2018-04-06T12:47:34.777Z,21.38
2018-04-06T12:48:34.808Z,21.95
2018-04-06T12:49:34.838Z,20.61
2018-04-06T12:50:34.874Z,20.23
2018-04-06T12:51:34.898Z,20.34
2018-04-06T12:52:34.929Z,20.05
2018-04-06T12:53:34.961Z,19.86
2018-04-06T12:54:34.990Z,18.12
2018-04-06T12:55:35.019Z,17.44
2018-04-06T12:56:35.050Z,18.04
2018-04-06T12:57:35.079Z,18.21
2018-04-06T12:58:35.312Z,18.20